createdAt,value
2022-11-21T00:03:02.849Z,13.62
2022-11-21T00:08:09.055Z,15.66
2022-11-21T00:13:15.149Z,14.92
2022-11-21T00:18:21.301Z,14.37
2022-11-21T00:23:27.499Z,15.87
2022-11-21T00:28:33.666Z,16.44
2022-11-21T00:33:39.832Z,15.45
2022-11-21T00:38:46.172Z,16.18
2022-11-21T00:43:52.263Z,15.28
2022-11-21T00:48:58.550Z,15.33
2022-11-21T00:54:16.920Z,16.07
2022-11-21T00:59:23.144Z,15.43
2022-11-21T01:04:29.596Z,14.85
2022-11-21T01:09:35.403Z,14.39
2022-11-21T01:14:42.351Z,15.73
2022-11-21T01:19:48.605Z,15.43
2022-11-21T01:24:54.783Z,15.06
2022-11-21T01:30:00.976Z,15.63
2022-11-21T01:35:07.461Z,15.27
2022-11-21T01:40:13.735Z,16.17
2022-11-21T01:45:19.884Z,15.06
2022-11-21T01:50:26.155Z,15.47
2022-11-21T01:55:32.530Z,15.06
2022-11-21T02:00:39.071Z,14.95
2022-11-21T02:05:45.122Z,14.90
2022-11-21T02:10:51.765Z,14.67
2022-11-21T02:15:58.127Z,14.97
2022-11-21T02:21:04.694Z,14.82
2022-11-21T02:26:10.749Z,14.89
2022-11-21T02:31:16.873Z,14.87
2022-11-21T02:37:04.977Z,16.79
2022-11-21T02:42:11.538Z,15.95
2022-11-21T02:47:17.645Z,14.61
2022-11-21T02:52:23.891Z,14.72
2022-11-21T02:57:29.972Z,14.84
2022-11-21T03:02:36.221Z,14.27
2022-11-21T03:07:42.758Z,14.30
2022-11-21T03:12:48.900Z,13.84
2022-11-21T03:17:54.968Z,13.86
2022-11-21T03:23:01.844Z,14.27
2022-11-21T03:28:07.932Z,14.17
2022-11-21T03:33:14.168Z,14.90
2022-11-21T03:38:20.239Z,14.27
2022-11-21T03:43:26.411Z,14.00
2022-11-21T03:48:32.471Z,14.27
2022-11-21T03:53:38.670Z,14.43
2022-11-21T03:58:45.117Z,14.16
2022-11-21T04:03:51.275Z,14.40
2022-11-21T04:08:57.335Z,14.21
2022-11-21T04:14:03.542Z,13.97
2022-11-21T04:19:09.668Z,14.00
2022-11-21T04:24:15.818Z,14.76
2022-11-21T04:29:21.909Z,14.42
2022-11-21T04:34:28.476Z,14.64
2022-11-21T04:39:33.846Z,13.86
2022-11-21T04:44:40.080Z,14.71
2022-11-21T04:49:46.930Z,14.13
2022-11-21T04:54:53.186Z,14.17
2022-11-21T04:59:59.263Z,13.90
2022-11-21T05:05:06.245Z,13.82
2022-11-21T05:10:12.752Z,13.82
2022-11-21T05:15:24.270Z,14.23
2022-11-21T05:20:24.626Z,13.87
2022-11-21T05:25:30.861Z,14.28
2022-11-21T05:30:37.715Z,13.71
2022-11-21T05:35:44.084Z,14.26
2022-11-21T05:40:50.518Z,13.43
2022-11-21T05:45:57.613Z,14.16
2022-11-21T05:51:03.673Z,14.70
2022-11-21T05:56:10.632Z,13.92
2022-11-21T06:01:16.781Z,14.09
2022-11-21T06:06:24.987Z,14.41
2022-11-21T06:11:28.791Z,13.81
2022-11-21T06:16:35.006Z,14.46
2022-11-21T06:21:41.087Z,14.41
2022-11-21T06:26:47.578Z,15.94
2022-11-21T06:31:53.750Z,15.44
2022-11-21T06:37:00.287Z,16.28
2022-11-21T06:42:06.708Z,16.26
2022-11-21T06:47:12.939Z,16.13
2022-11-21T06:52:19.359Z,17.21
2022-11-21T06:57:25.588Z,17.54
2022-11-21T07:02:31.672Z,17.17
2022-11-21T07:07:38.008Z,16.93
2022-11-21T07:12:44.082Z,16.87
2022-11-21T07:17:50.670Z,16.85
2022-11-21T07:22:56.783Z,16.74
2022-11-21T07:28:02.982Z,16.24
2022-11-21T07:33:09.063Z,16.77
2022-11-21T07:38:15.262Z,17.08
2022-11-21T07:43:21.368Z,16.70
2022-11-21T07:48:27.558Z,17.37
2022-11-21T07:53:33.637Z,17.46
2022-11-21T07:58:39.837Z,17.63
2022-11-21T08:03:45.912Z,19.64
2022-11-21T08:08:52.093Z,20.16
2022-11-21T08:13:58.197Z,19.15
2022-11-21T08:19:04.398Z,19.38
2022-11-21T08:24:10.769Z,19.95
2022-11-21T08:29:16.986Z,20.38
2022-11-21T08:34:23.037Z,20.47
2022-11-21T08:39:29.455Z,21.49
2022-11-21T08:44:35.296Z,20.99
2022-11-21T08:49:41.507Z,20.42
2022-11-21T08:54:47.590Z,21.47
2022-11-21T08:59:53.789Z,21.87
2022-11-21T09:04:59.877Z,21.07
2022-11-21T09:10:06.016Z,22.19
2022-11-21T09:15:12.081Z,22.16
2022-11-21T09:20:18.266Z,21.99
2022-11-21T09:25:24.293Z,22.03
2022-11-21T09:30:30.471Z,21.76
2022-11-21T09:35:36.527Z,22.53
2022-11-21T09:40:42.692Z,22.71
2022-11-21T09:45:48.750Z,21.44
2022-11-21T09:50:55.037Z,21.44
2022-11-21T09:56:01.111Z,20.31
2022-11-21T10:01:07.855Z,20.55
2022-11-21T10:06:13.908Z,20.37
2022-11-21T10:11:20.450Z,19.18
2022-11-21T10:16:26.242Z,20.21
2022-11-21T10:21:32.412Z,19.13
2022-11-21T10:26:38.805Z,17.99
2022-11-21T10:31:45.113Z,18.38
2022-11-21T10:36:51.149Z,18.05
2022-11-21T10:41:57.313Z,18.99
2022-11-21T10:47:04.132Z,17.98
2022-11-21T10:52:10.369Z,17.84
2022-11-21T10:57:16.500Z,16.77
2022-11-21T11:02:22.928Z,16.86
2022-11-21T11:07:29.148Z,16.66
2022-11-21T11:12:35.316Z,15.76
2022-11-21T11:17:41.377Z,13.02
2022-11-21T11:22:48.127Z,10.22
2022-11-21T11:27:53.135Z,10.29
2022-11-21T11:32:59.274Z,8.37
2022-11-21T11:38:05.355Z,7.43
2022-11-21T11:43:11.541Z,7.94
2022-11-21T11:48:17.629Z,7.54
2022-11-21T11:53:23.827Z,7.73
2022-11-21T11:58:29.871Z,7.55
2022-11-21T12:03:36.016Z,7.22
2022-11-21T12:08:42.916Z,7.94
2022-11-21T12:13:47.950Z,6.73
2022-11-21T12:18:53.861Z,6.06
2022-11-21T12:24:00.047Z,6.27
2022-11-21T12:29:06.083Z,6.08
2022-11-21T12:34:12.228Z,6.10
2022-11-21T12:39:18.288Z,6.45
2022-11-21T12:44:24.444Z,6.96
2022-11-21T12:49:30.804Z,7.22
2022-11-21T12:54:36.736Z,7.47
2022-11-21T12:59:42.784Z,8.26
2022-11-21T13:04:49.063Z,8.14
2022-11-21T13:09:55.434Z,8.71
2022-11-21T13:15:01.754Z,8.90
2022-11-21T13:20:07.819Z,9.51
2022-11-21T13:25:14.033Z,10.08
2022-11-21T13:30:20.100Z,10.25
2022-11-21T13:35:26.277Z,9.92
2022-11-21T13:40:32.374Z,9.43
2022-11-21T13:45:38.591Z,10.28
2022-11-21T13:50:44.715Z,10.33
2022-11-21T13:55:50.864Z,10.11
2022-11-21T14:00:58.365Z,9.71
2022-11-21T14:06:02.802Z,9.90
2022-11-21T14:11:08.908Z,9.86
2022-11-21T14:16:15.084Z,10.40
2022-11-21T14:21:21.173Z,9.86
2022-11-21T14:26:27.301Z,9.87
2022-11-21T14:31:33.394Z,9.81
2022-11-21T14:36:39.601Z,9.31
2022-11-21T14:41:47.072Z,9.23
2022-11-21T14:46:51.380Z,9.05
2022-11-21T14:51:57.458Z,9.33
2022-11-21T14:57:03.941Z,9.14
2022-11-21T15:02:10.035Z,8.52
2022-11-21T15:07:16.259Z,9.65
2022-11-21T15:12:23.203Z,9.43
2022-11-21T15:17:30.238Z,9.91
2022-11-21T15:22:36.516Z,9.57
2022-11-21T15:27:42.717Z,9.45
2022-11-21T15:32:48.884Z,9.63
2022-11-21T15:37:55.120Z,9.78
2022-11-21T15:39:10.081Z,11.21
2022-11-21T15:44:16.142Z,10.33
2022-11-21T15:49:33.169Z,10.70
2022-11-21T15:54:28.203Z,10.12
2022-11-21T15:59:34.307Z,11.27
2022-11-21T16:04:40.448Z,11.45
2022-11-21T16:09:47.875Z,11.24
2022-11-21T16:14:52.324Z,11.10
2022-11-21T16:19:58.702Z,11.81
2022-11-21T16:25:05.107Z,12.70
2022-11-21T16:30:11.310Z,11.91
2022-11-21T16:35:17.354Z,12.81
2022-11-21T16:40:23.922Z,11.57
2022-11-21T16:45:30.015Z,12.14
2022-11-21T16:50:36.244Z,12.90
2022-11-21T16:55:42.327Z,12.13
2022-11-21T17:00:48.591Z,12.01
2022-11-21T17:05:54.648Z,12.02
2022-11-21T17:11:01.603Z,11.58
2022-11-21T17:16:06.440Z,11.87
2022-11-21T17:21:13.075Z,12.26
2022-11-21T17:26:19.168Z,13.06
2022-11-21T17:31:25.506Z,12.76
2022-11-21T17:36:31.658Z,12.44
2022-11-21T17:41:37.826Z,11.91
2022-11-21T17:46:43.994Z,11.97
2022-11-21T17:51:55.223Z,12.59
2022-11-21T17:56:57.174Z,11.53
2022-11-21T18:02:01.867Z,11.66
2022-11-21T18:07:07.851Z,11.86
2022-11-21T18:12:14.016Z,11.75
2022-11-21T18:17:20.500Z,11.02
2022-11-21T18:22:29.616Z,11.61
2022-11-21T18:27:32.347Z,12.13
2022-11-21T18:32:38.548Z,12.70
2022-11-21T18:37:44.676Z,12.21
2022-11-21T18:42:50.822Z,13.60
2022-11-21T18:47:57.534Z,12.95
2022-11-21T18:53:03.016Z,13.08
2022-11-21T18:58:09.080Z,12.76
2022-11-21T19:03:15.346Z,13.60
2022-11-21T19:08:21.410Z,13.73
2022-11-21T19:13:27.613Z,15.08
2022-11-21T19:18:39.254Z,16.11
2022-11-21T19:23:39.458Z,14.03
2022-11-21T19:28:45.555Z,13.48
2022-11-21T19:33:51.739Z,14.32
2022-11-21T19:38:57.846Z,15.55
2022-11-21T19:44:04.062Z,14.47
2022-11-21T19:49:10.193Z,14.48
2022-11-21T19:54:16.711Z,14.50
2022-11-21T19:59:29.363Z,14.77
2022-11-21T20:04:25.377Z,15.40
2022-11-21T20:09:34.569Z,15.80
2022-11-21T20:14:37.341Z,15.52
2022-11-21T20:19:49.314Z,16.71
2022-11-21T20:24:51.893Z,17.41
2022-11-21T20:29:55.035Z,16.95
2022-11-21T20:35:01.371Z,18.14
2022-11-21T20:40:07.426Z,18.86
2022-11-21T20:50:46.641Z,17.89
2022-11-21T20:55:25.171Z,16.84
2022-11-21T21:00:31.265Z,16.90
2022-11-21T21:05:37.551Z,18.45
2022-11-21T21:11:05.135Z,17.01
2022-11-21T21:15:49.413Z,18.46
2022-11-21T21:21:15.891Z,17.43
2022-11-21T21:26:01.238Z,17.03
2022-11-21T21:31:07.719Z,17.88
2022-11-21T21:36:14.696Z,17.71
2022-11-21T21:41:21.841Z,17.59
2022-11-21T21:46:29.162Z,17.38
2022-11-21T21:51:34.539Z,17.51
2022-11-21T21:56:41.046Z,17.57
2022-11-21T22:01:47.193Z,17.22
2022-11-21T22:06:53.317Z,17.14
2022-11-21T22:11:59.376Z,17.00
2022-11-21T22:17:05.469Z,17.07
2022-11-21T22:22:11.532Z,17.28
2022-11-21T22:27:17.763Z,17.53
2022-11-21T22:32:23.914Z,17.11
2022-11-21T22:37:30.090Z,16.86
2022-11-21T22:43:21.700Z,19.96
2022-11-21T22:48:28.038Z,18.10
2022-11-21T22:53:38.694Z,17.66
2022-11-21T22:58:39.861Z,17.20
2022-11-21T23:03:45.973Z,17.81
2022-11-21T23:08:52.173Z,17.87
2022-11-21T23:13:58.572Z,18.05
2022-11-21T23:19:05.080Z,19.80
2022-11-21T23:24:11.253Z,18.85
2022-11-21T23:29:17.426Z,19.84
2022-11-21T23:34:23.520Z,18.84
2022-11-21T23:39:30.088Z,19.67
2022-11-21T23:44:35.430Z,19.36
2022-11-21T23:49:44.797Z,21.07
2022-11-21T23:54:47.222Z,20.19
2022-11-21T23:59:53.399Z,20.98
